Links Sitemap Venhuizerweer voor mobiel

AMSTERDAM SCHIPHOL:
Amsterdam Airport Schiphol, Netherlands (EHAM) 52-18N 004-46E -2M
Jan 23, 2022 - 09:55 AM EST / 2022.01.23 1455 UTC
Wind: from the SSW (200 degrees) at 5 MPH (4 KT) (direction variable):0
Visibility: greater than 7 mile(s):0
Sky conditions: mostly cloudy
Temperature: 46 F (8 C)
Dew Point: 37 F (3 C)
Relative Humidity: 70%
Pressure (altimeter): 30.56 in. Hg (1035 hPa)
ob: EHAM 231455Z 20004KT 180V260 9999 FEW014 BKN029 08/03 Q1035 NOSIG
cycle: 15
DEELEN:
Deelen, Netherlands (EHDL) 52-04N 005-53E 52M
Jan 23, 2022 - 09:55 AM EST / 2022.01.23 1455 UTC
Wind: Variable at 2 MPH (2 KT):0
Visibility: greater than 7 mile(s):0
Sky conditions: overcast
Temperature: 42 F (6 C)
Dew Point: 37 F (3 C)
Relative Humidity: 81%
Pressure (altimeter): 30.56 in. Hg (1035 hPa)
ob: EHDL 231455Z AUTO VRB02KT 9999 OVC023 06/03 Q1035 WHT
cycle: 15
DE KOOY:
De Kooy, Netherlands (EHKD) 52-55N 004-47E 14M
Jan 23, 2022 - 09:55 AM EST / 2022.01.23 1455 UTC
Wind: from the SW (220 degrees) at 7 MPH (6 KT):0
Visibility: greater than 7 mile(s):0
Sky conditions: overcast
Temperature: 44 F (7 C)
Dew Point: 41 F (5 C)
Relative Humidity: 87%
Pressure (altimeter): 30.53 in. Hg (1034 hPa)
ob: EHKD 231455Z AUTO 22006KT 9999 OVC025 07/05 Q1034 BLU NOSIG
cycle: 15
EELDE:
Groningen Airport Eelde, Netherlands (EHGG) 53-08N 006-35E 4M
Jan 23, 2022 - 09:55 AM EST / 2022.01.23 1455 UTC
Wind: from the SW (230 degrees) at 5 MPH (4 KT) (direction variable):0
Visibility: greater than 7 mile(s):0
Sky conditions: overcast
Temperature: 44 F (7 C)
Dew Point: 39 F (4 C)
Relative Humidity: 81%
Pressure (altimeter): 30.56 in. Hg (1035 hPa)
ob: EHGG 231455Z AUTO 23004KT 200V260 9999 OVC016 07/04 Q1035 NOSIG
cycle: 15
EINDHOVEN:
Eindhoven, Netherlands (EHEH) 51-27N 005-25E 28M
Jan 23, 2022 - 09:55 AM EST / 2022.01.23 1455 UTC
Wind: from the WSW (240 degrees) at 3 MPH (3 KT) (direction variable):0
Visibility: greater than 7 mile(s):0
Sky conditions: overcast
Temperature: 44 F (7 C)
Dew Point: 39 F (4 C)
Relative Humidity: 81%
Pressure (altimeter): 30.56 in. Hg (1035 hPa)
ob: EHEH 231455Z AUTO 24003KT 240V310 9999 OVC029 07/04 Q1035 BLU NOSIG
cycle: 15
GILZE-RIJEN:
Gilze-Rijen, Netherlands (EHGR) 51-34N 004-56E 24M
Jan 23, 2022 - 09:55 AM EST / 2022.01.23 1455 UTC
Wind: Variable at 2 MPH (2 KT):0
Visibility: greater than 7 mile(s):0
Sky conditions: overcast
Temperature: 44 F (7 C)
Dew Point: 39 F (4 C)
Relative Humidity: 81%
Pressure (altimeter): 30.56 in. Hg (1035 hPa)
ob: EHGR 231455Z AUTO VRB02KT 9999 OVC025 07/04 Q1035 BLU
cycle: 15
LEEUWARDEN:
Leeuwarden, Netherlands (EHLW) 53-13N 005-46E 11M
Jan 23, 2022 - 09:55 AM EST / 2022.01.23 1455 UTC
Wind: from the SSW (200 degrees) at 5 MPH (4 KT) (direction variable):0
Visibility: greater than 7 mile(s):0
Sky conditions: overcast
Temperature: 42 F (6 C)
Dew Point: 42 F (6 C)
Relative Humidity: 100%
Pressure (altimeter): 30.56 in. Hg (1035 hPa)
ob: EHLW 231455Z AUTO 20004KT 170V230 9999 OVC016 06/06 Q1035 WHT
cycle: 15
MAASTRICHT:
Maastricht Airport Zuid Limburg, Netherlands (EHBK) 50-55N 005-47E 116M
Jan 23, 2022 - 09:55 AM EST / 2022.01.23 1455 UTC
Wind: from the SW (220 degrees) at 1 MPH (1 KT):0
Visibility: 4 mile(s):0
Sky conditions: overcast
Temperature: 42 F (6 C)
Dew Point: 37 F (3 C)
Relative Humidity: 81%
Pressure (altimeter): 30.56 in. Hg (1035 hPa)
ob: EHBK 231455Z AUTO 22001KT 8000 OVC026 06/03 Q1035 NOSIG
cycle: 15
ROTTERDAM ZESTIENHOVEN:
Rotterdam Airport Zestienhoven, Netherlands (EHRD) 51-57N 004-27E -4M
Jan 23, 2022 - 09:55 AM EST / 2022.01.23 1455 UTC
Wind: from the SSW (210 degrees) at 3 MPH (3 KT) (direction variable):0
Visibility: greater than 7 mile(s):0
Sky conditions: overcast
Temperature: 44 F (7 C)
Dew Point: 39 F (4 C)
Relative Humidity: 81%
Pressure (altimeter): 30.56 in. Hg (1035 hPa)
ob: EHRD 231455Z AUTO 21003KT 170V240 9999 OVC028 07/04 Q1035 NOSIG
cycle: 15
SOESTERBERG:
Soesterberg, Netherlands (EHSB) 52-08N 005-17E 25M
Nov 20, 2008 - 04:25 AM EST / 2008.11.20 0925 UTC
Wind: from the W (280 degrees) at 16 MPH (14 KT):0
Visibility: greater than 7 mile(s):0
Temperature: 51 F (11 C)
Dew Point: 48 F (9 C)
Relative Humidity: 87%
Pressure (altimeter): 29.83 in. Hg (1010 hPa)
ob: EHSB 200925Z AUTO 28014KT 9999 // 11/09 Q1010
cycle: 9
TWENTE:
Twenthe, Netherlands (EHTW) 52-16N 006-54E 57M
Apr 07, 2008 - 08:25 AM EDT / 2008.04.07 1225 UTC
Wind: from the N (010 degrees) at 7 MPH (6 KT):0
Sky conditions: mostly cloudy
Temperature: 46 F (8 C)
Dew Point: 24 F (-4 C)
Relative Humidity: 42%
Pressure (altimeter): 29.59 in. Hg (1002 hPa)
ob: EHTW 071225Z AUTO 01006KT //// // BKN200/// 08/M04 Q1002 RE//
cycle: 12
VALKENBURG:
Valkenburg, Netherlands (EHVB) 52-11N 004-25E 2M
Apr 01, 2010 - 03:55 AM EDT / 2010.04.01 0755 UTC
Wind: from the WSW (250 degrees) at 20 MPH (17 KT):0
Sky conditions: mostly cloudy
Temperature: 41 F (5 C)
Dew Point: 33 F (1 C)
Relative Humidity: 75%
Pressure (altimeter): 29.62 in. Hg (1003 hPa)
ob: EHVB 010755Z AUTO 25017KT 9999NDV FEW021/// BKN037/// 05/01 Q1003 BLU
cycle: 8
VLIELAND:
Vlieland, Netherlands (EHVL) 53-15N 004-55E 12M
Jan 23, 2022 - 09:55 AM EST / 2022.01.23 1455 UTC
Wind: from the SW (230 degrees) at 9 MPH (8 KT):0
Visibility: 5 mile(s):0
Sky conditions: overcast
Weather: mist
Temperature: 44 F (7 C)
Dew Point: 42 F (6 C)
Relative Humidity: 93%
Pressure (altimeter): 30.53 in. Hg (1034 hPa)
ob: EHVL 231455Z AUTO 23008KT 9000 BR OVC022 07/06 Q1034 WHT
cycle: 15
VOLKEL:
Volkel, Netherlands (EHVK) 51-39N 005-42E 21M
Jan 23, 2022 - 09:55 AM EST / 2022.01.23 1455 UTC
Wind: Variable at 2 MPH (2 KT):0
Visibility: 5 mile(s):0
Sky conditions: overcast
Weather: mist
Temperature: 44 F (7 C)
Dew Point: 41 F (5 C)
Relative Humidity: 87%
Pressure (altimeter): 30.56 in. Hg (1035 hPa)
ob: EHVK 231455Z AUTO VRB02KT 9000 BR OVC027 07/05 Q1035 BLU
cycle: 15
WOENSDRECHT:
Woensdrecht, Netherlands (EHWO) 51-27N 004-20E 17M
Jan 23, 2022 - 09:55 AM EST / 2022.01.23 1455 UTC
Wind: Variable at 1 MPH (1 KT):0
Visibility: greater than 7 mile(s):0
Sky conditions: overcast
Temperature: 42 F (6 C)
Dew Point: 39 F (4 C)
Relative Humidity: 86%
Pressure (altimeter): 30.56 in. Hg (1035 hPa)
ob: EHWO 231455Z AUTO VRB01KT 9999 OVC023 06/04 Q1035 WHT
cycle: 15
Copyright © 2005 - 2022 Venhuizerweer - Alle Rechten Voorbehouden


54.224.117.125